EHVL  Vlieland  Heliport

Vlieland, The Netherlands

Add Bookmark
Status
Operational
Latitude Longitude
53° 17' 47" N 5° 5' 8" E
53.296665 5.085833
Local (DST + 2) UTC (GMT + 1)
Mar 5, 2015 03:29 Mar 5, 2015 02:29
Sunrise-Sunset Local UTC
Begin Civil Twilight 06:40 05:40
Sunrise 07:15 06:15
Sunset 06:26 17:26
End Civil Twilight 07:01 18:01

Current Weather

METAR Observed MVFR
EHVL 050159Z AUTO 31013KT 8000 BR NCD 05/04 Q1034 BLU Thu, Mar 5, 2015 @ 01:59 UTC
(30 Minutes ago)
Marginal Visual Flight Rules
Wind Visibility Clouds Conditions
310° at 13 knots (24 kph) 8000 meters
  • Clear skies
  • Mist
Temperatures Readings Precipitation
Current Temp 5°C (41°F)
Dewpoint 4°C (39°F)
Humidity 93%
Altimeter 30.53"Hg
Sea Level Pressure 1034mb
Field Elevation 16.4'
None Recorded

Additional weather within a 92.6km radius of EHVL

Map ICAO Location
EHMG 36.5km N (347°)
EHLW 45.6km E (099°)
EHKD 46.1km S (206°)
EHMA 61.5km E (068°)
EHQE 75.4km W (236°)

24 Hour Weather History

Loading
-

24 Hour Weather Graphs

Loading
-

CheckWX.com is intended as a tool to help pilots better visualize weather data. It is not intended as a substitute for an official weather briefing obtained from a Flight Service Station. CheckWX.com does not meet the FAA requirements for an official pre-flight weather briefing. Therefore, it's important that pilots still call and obtain an official FSS pre-flight weather briefing.